Time;durP1;ratioP1;P1;durP2;ratioP2;P2;SDS_P1;SDS_P2;PMS_P1;PMS_P2;Temp;Humidity;BMP_temperature;BMP_pressure;BME280_temperature;BME280_humidity;BME280_pressure;Samples;Min_cycle;Max_cycle;Signal;HPM_P1;HPM_P2
2022/12/24 00:02:39;;;;;;;30.30;12.32;;;6.10;99.90;;;;;;6126111;22;20023;-79
2022/12/24 00:05:15;;;;;;;34.03;14.25;;;7.10;99.90;;;;;;6202456;22;20360;-81
2022/12/24 00:07:41;;;;;;;35.88;14.20;;;7.40;99.90;;;;;;6229088;22;20031;-79
2022/12/24 00:10:07;;;;;;;35.65;15.52;;;7.30;99.90;;;;;;6229137;22;20012;-80
2022/12/24 00:12:34;;;;;;;41.63;15.80;;;7.30;99.90;;;;;;6203498;22;20050;-80
2022/12/24 00:15:00;;;;;;;38.35;14.52;;;6.90;99.90;;;;;;6253084;22;20314;-80
2022/12/24 00:17:26;;;;;;;36.65;13.95;;;7.50;99.90;;;;;;6202850;22;20015;-78
2022/12/24 00:20:01;;;;;;;35.88;13.50;;;7.70;99.90;;;;;;6227637;22;20018;-80
2022/12/24 00:22:37;;;;;;;;;;;;;;;;;;;;;
2022/12/24 00:25:03;;;;;;;45.70;14.55;;;7.60;99.90;;;;;;6231867;22;20059;-78
2022/12/24 00:27:31;;;;;;;39.55;14.50;;;7.50;99.90;;;;;;6203658;22;20366;-82
2022/12/24 00:30:14;;;;;;;34.90;14.98;;;7.40;99.90;;;;;;6228952;22;20500;-80
2022/12/24 00:33:23;;;;;;;;;;;;;;;;;;;;;
2022/12/24 00:39:54;;;;;;;34.25;14.77;;;7.30;99.90;;;;;;6224507;22;20257;-78
2022/12/24 00:42:29;;;;;;;40.58;14.23;;;6.90;99.90;;;;;;6252020;22;20016;-79
2022/12/24 00:48:03;;;;;;;36.78;13.93;;;7.10;99.90;;;;;;6225481;22;19942;-78
2022/12/24 00:50:31;;;;;;;42.40;14.90;;;7.10;99.90;;;;;;6228336;22;20018;-80
2022/12/24 00:53:11;;;;;;;37.00;14.73;;;6.90;99.90;;;;;;6197545;22;20082;-79
2022/12/24 00:56:02;;;;;;;29.75;13.90;;;5.90;99.90;;;;;;6200997;22;20020;-79
2022/12/24 00:59:13;;;;;;;41.50;14.82;;;7.10;99.90;;;;;;6231901;22;20024;-78
2022/12/24 01:02:19;;;;;;;42.47;14.23;;;7.30;99.90;;;;;;6227318;22;20019;-79
2022/12/24 01:07:32;;;;;;;35.10;13.75;;;8.90;99.90;;;;;;6274275;22;20074;-80
2022/12/24 01:09:58;;;;;;;40.90;15.25;;;7.00;99.90;;;;;;6285163;22;20038;-80
2022/12/24 01:12:34;;;;;;;41.20;15.52;;;6.80;99.90;;;;;;6234632;22;20023;-81
2022/12/24 01:15:00;;;;;;;38.38;14.82;;;7.60;99.90;;;;;;6261834;22;20011;-81
2022/12/24 01:17:25;;;;;;;39.97;14.95;;;7.60;99.90;;;;;;6211731;22;20007;-80
2022/12/24 01:19:51;;;;;;;33.47;14.57;;;7.10;99.90;;;;;;6261244;22;20096;-81
2022/12/24 01:22:17;;;;;;;42.00;13.73;;;7.10;99.90;;;;;;6261364;22;20317;-78
2022/12/24 01:24:43;;;;;;;31.70;14.82;;;7.00;99.90;;;;;;6262570;22;20034;-80
2022/12/24 01:27:11;;;;;;;41.50;15.60;;;7.30;99.90;;;;;;6288097;22;20026;-80
2022/12/24 01:29:37;;;;;;;35.25;14.00;;;6.90;99.90;;;;;;6236855;22;20018;-80
2022/12/24 01:32:03;;;;;;;38.83;16.77;;;7.40;99.90;;;;;;6236719;22;20019;-79
2022/12/24 01:34:31;;;;;;;43.83;15.32;;;7.40;99.90;;;;;;6260760;22;20298;-80
2022/12/24 01:37:00;;;;;;;39.08;14.10;;;6.90;99.90;;;;;;6238669;22;20611;-80
2022/12/24 01:39:26;;;;;;;35.83;14.65;;;7.10;99.90;;;;;;6236241;22;20019;-79
2022/12/24 01:45:22;;;;;;;36.97;14.95;;;6.80;99.90;;;;;;6284402;22;20043;-81
2022/12/24 01:47:51;;;;;;;36.70;15.68;;;7.20;99.90;;;;;;6236305;22;20020;-80
2022/12/24 01:50:38;;;;;;;38.80;15.15;;;7.10;99.90;;;;;;6243820;22;20266;-80
2022/12/24 01:53:07;;;;;;;47.78;18.17;;;6.30;99.90;;;;;;6233258;22;20007;-80
2022/12/24 01:55:33;;;;;;;38.67;14.15;;;6.20;99.90;;;;;;6261235;22;20008;-80
2022/12/24 01:58:00;;;;;;;48.33;17.45;;;6.70;99.90;;;;;;6284770;22;20015;-80
2022/12/24 02:00:30;;;;;;;40.63;16.00;;;7.40;99.90;;;;;;6259803;22;20026;-79
2022/12/24 02:03:14;;;;;;;62.75;19.02;;;6.80;99.90;;;;;;6235783;22;20015;-81
2022/12/24 02:06:43;;;;;;;48.22;17.50;;;7.40;99.90;;;;;;6229358;22;20019;-81
2022/12/24 02:09:56;;;;;;;59.78;19.80;;;6.20;99.90;;;;;;6227011;22;20386;-79
2022/12/24 02:12:35;;;;;;;42.33;15.98;;;7.40;99.90;;;;;;6134439;23;20296;-79
2022/12/24 02:15:01;;;;;;;47.30;16.65;;;6.90;99.90;;;;;;6108410;23;20037;-79
2022/12/24 02:17:39;;;;;;;48.85;16.85;;;7.30;99.90;;;;;;6182059;22;20059;-79
2022/12/24 02:20:26;;;;;;;53.53;18.00;;;7.40;99.90;;;;;;6253695;22;20069;-79
2022/12/24 02:23:18;;;;;;;45.45;15.95;;;7.30;99.90;;;;;;6230100;22;20015;-80
2022/12/24 02:26:22;;;;;;;52.47;16.70;;;7.40;99.90;;;;;;6229026;22;20022;-79
2022/12/24 02:29:17;;;;;;;51.38;16.77;;;7.10;99.90;;;;;;6208392;22;20016;-79
2022/12/24 02:32:00;;;;;;;49.50;16.43;;;6.90;99.90;;;;;;6229605;22;20023;-78
2022/12/24 02:34:50;;;;;;;41.42;14.32;;;6.90;99.90;;;;;;6255776;22;20301;-78
2022/12/24 02:37:32;;;;;;;55.45;16.42;;;7.30;99.90;;;;;;6254247;22;20019;-79
2022/12/24 02:40:26;;;;;;;42.38;16.23;;;7.40;99.90;;;;;;6229504;22;20011;-79
2022/12/24 02:42:57;;;;;;;57.95;17.30;;;7.10;99.90;;;;;;6229213;22;20022;-79
2022/12/24 02:45:34;;;;;;;47.55;17.90;;;7.10;99.90;;;;;;6229252;22;20023;-78
2022/12/24 02:48:05;;;;;;;43.67;16.15;;;8.30;99.90;;;;;;6229800;22;20020;-79
2022/12/24 02:50:31;;;;;;;52.28;16.60;;;8.60;99.90;;;;;;6226985;22;20074;-79
2022/12/24 02:52:57;;;;;;;54.67;18.50;;;7.30;99.90;;;;;;6201008;22;20020;-78
2022/12/24 02:58:57;;;;;;;53.38;18.00;;;8.10;99.90;;;;;;6249401;22;20016;-79
2022/12/24 03:01:53;;;;;;;47.13;17.95;;;7.10;99.90;;;;;;6252522;22;20042;-79
2022/12/24 03:04:18;;;;;;;55.13;17.23;;;7.50;99.90;;;;;;6254784;22;20008;-80
2022/12/24 03:07:04;;;;;;;45.03;17.30;;;7.00;99.90;;;;;;6248282;22;20023;-79
2022/12/24 03:09:39;;;;;;;51.63;17.23;;;7.50;99.90;;;;;;6259339;22;20034;-80
2022/12/24 03:12:22;;;;;;;59.10;17.50;;;8.40;99.90;;;;;;6262439;22;20011;-80
2022/12/24 03:14:49;;;;;;;44.70;17.38;;;7.60;99.90;;;;;;6286333;22;20163;-78
2022/12/24 03:17:16;;;;;;;59.38;17.95;;;7.00;99.90;;;;;;6235463;22;20016;-79
2022/12/24 03:19:42;;;;;;;70.47;16.77;;;7.60;99.90;;;;;;6260644;22;20007;-79
2022/12/24 03:22:10;;;;;;;58.67;17.27;;;7.30;99.90;;;;;;6261344;22;20070;-78
2022/12/24 03:24:39;;;;;;;55.45;18.25;;;7.10;99.90;;;;;;6258474;22;20019;-79
2022/12/24 03:27:07;;;;;;;55.20;18.52;;;7.70;99.90;;;;;;6260364;22;20022;-79
2022/12/24 03:29:33;;;;;;;51.53;17.98;;;7.40;99.90;;;;;;6233284;22;20019;-78
2022/12/24 03:32:29;;;;;;;50.60;17.42;;;7.20;99.90;;;;;;6261495;22;20026;-79
2022/12/24 03:35:03;;;;;;;53.63;17.45;;;7.20;99.90;;;;;;6257839;22;20294;-80
2022/12/24 03:37:35;;;;;;;47.92;16.88;;;7.50;99.90;;;;;;6259649;22;20015;-80
2022/12/24 03:40:00;;;;;;;53.38;17.10;;;7.40;99.90;;;;;;6235262;22;20018;-79
2022/12/24 03:42:48;;;;;;;;;;;;;;;;;;;;;
2022/12/24 03:45:15;;;;;;;46.53;16.23;;;8.10;99.90;;;;;;6262738;22;20011;-80
2022/12/24 03:47:41;;;;;;;66.32;21.15;;;7.40;99.90;;;;;;6259250;22;20034;-80
2022/12/24 03:50:07;;;;;;;51.17;16.88;;;8.20;99.90;;;;;;6233204;22;20018;-80
2022/12/24 03:52:33;;;;;;;49.25;17.83;;;7.90;99.90;;;;;;6284554;22;20019;-80
2022/12/24 03:54:58;;;;;;;40.10;14.93;;;8.30;99.90;;;;;;6208779;22;20070;-78
2022/12/24 03:57:24;;;;;;;42.70;15.05;;;7.80;99.90;;;;;;6258982;22;20052;-78
2022/12/24 03:59:50;;;;;;;40.67;13.63;;;7.80;99.90;;;;;;6232149;22;20011;-79
2022/12/24 04:02:16;;;;;;;43.03;14.10;;;8.40;99.90;;;;;;6260644;22;20066;-78
2022/12/24 04:04:56;;;;;;;45.30;13.55;;;8.10;99.90;;;;;;6233083;22;20015;-79
2022/12/24 04:07:30;;;;;;;31.67;12.35;;;8.10;99.90;;;;;;6262696;22;20030;-79
2022/12/24 04:10:02;;;;;;;31.30;11.35;;;8.30;99.90;;;;;;6259371;22;20214;-79
2022/12/24 04:12:51;;;;;;;28.13;10.98;;;8.30;99.90;;;;;;6260157;22;20018;-79
2022/12/24 04:15:17;;;;;;;29.55;10.88;;;7.60;99.90;;;;;;6166117;22;20070;-80
2022/12/24 04:21:24;;;;;;;26.40;10.25;;;7.50;99.90;;;;;;6237151;22;20015;-79
2022/12/24 04:24:11;;;;;;;31.05;10.82;;;8.60;99.90;;;;;;6260167;22;20007;-79
2022/12/24 04:26:45;;;;;;;22.85;10.15;;;8.50;99.90;;;;;;6259057;22;20015;-79
2022/12/24 04:29:12;;;;;;;27.70;10.65;;;8.30;99.90;;;;;;6234942;22;20322;-80
2022/12/24 04:31:43;;;;;;;27.85;10.48;;;8.80;99.90;;;;;;6233863;22;20014;-79
2022/12/24 04:34:08;;;;;;;34.22;11.38;;;8.90;99.90;;;;;;6258093;22;20096;-79
2022/12/24 04:36:34;;;;;;;28.05;10.98;;;8.20;99.90;;;;;;6232648;22;20023;-79
2022/12/24 04:39:12;;;;;;;25.23;9.95;;;8.60;99.90;;;;;;6235088;22;20078;-77
2022/12/24 04:41:40;;;;;;;32.92;11.60;;;8.30;99.90;;;;;;6238353;22;20023;-78
2022/12/24 04:44:09;;;;;;;30.25;10.32;;;8.40;99.90;;;;;;6285273;22;20041;-78
2022/12/24 04:46:35;;;;;;;30.02;10.25;;;8.40;99.90;;;;;;6260383;22;20015;-78
2022/12/24 04:49:01;;;;;;;33.90;11.98;;;8.60;99.90;;;;;;6262331;22;20015;-78
2022/12/24 04:51:27;;;;;;;30.90;10.23;;;8.60;99.90;;;;;;6259432;22;20042;-80
2022/12/24 04:53:54;;;;;;;39.50;10.15;;;8.60;99.90;;;;;;6208780;22;20015;-81
2022/12/24 04:56:26;;;;;;;24.08;9.10;;;8.50;99.90;;;;;;6260385;22;20071;-80
2022/12/24 04:58:52;;;;;;;41.63;8.65;;;8.50;99.90;;;;;;6260273;22;20011;-79
2022/12/24 05:01:24;;;;;;;44.63;9.50;;;9.20;99.90;;;;;;6233298;22;20007;-79
2022/12/24 05:03:52;;;;;;;30.80;6.82;;;9.10;99.90;;;;;;6259818;22;20011;-79
2022/12/24 05:06:20;;;;;;;32.53;7.72;;;8.60;99.90;;;;;;6237824;22;20011;-80
2022/12/24 05:08:46;;;;;;;28.98;5.82;;;8.60;99.90;;;;;;6262663;22;20023;-80
2022/12/24 05:11:15;;;;;;;33.38;5.95;;;9.10;99.90;;;;;;6288086;22;20113;-78
2022/12/24 05:13:42;;;;;;;31.73;5.00;;;9.10;99.90;;;;;;6237012;22;20226;-80
2022/12/24 05:16:09;;;;;;;33.65;5.85;;;8.80;99.90;;;;;;6287928;22;20116;-79
2022/12/24 05:18:35;;;;;;;37.15;5.28;;;8.50;99.90;;;;;;6287998;22;20062;-80
2022/12/24 05:28:20;;;;;;;38.63;5.50;;;8.80;99.90;;;;;;6071967;23;20014;-80
2022/12/24 05:31:23;;;;;;;35.10;4.93;;;8.50;99.90;;;;;;6151722;23;20024;-78
2022/12/24 05:34:19;;;;;;;32.63;5.10;;;9.20;99.90;;;;;;6290764;22;20053;-79
2022/12/24 05:36:45;;;;;;;36.25;5.97;;;9.20;99.90;;;;;;6260673;22;20066;-78
2022/12/24 05:39:27;;;;;;;37.38;5.40;;;9.10;99.90;;;;;;6236058;22;20015;-78
2022/12/24 05:42:23;;;;;;;31.80;5.38;;;8.70;99.90;;;;;;6286935;22;20015;-79
2022/12/24 05:44:58;;;;;;;27.98;4.40;;;8.80;99.90;;;;;;6286703;22;20014;-79
2022/12/24 05:47:46;;;;;;;30.98;4.47;;;8.70;99.90;;;;;;6285490;22;20252;-79
2022/12/24 05:50:12;;;;;;;27.77;5.88;;;9.20;99.90;;;;;;6261349;22;20041;-78
2022/12/24 05:52:41;;;;;;;42.20;6.15;;;7.70;99.90;;;;;;6233103;22;20197;-78
2022/12/24 05:59:06;;;;;;;25.70;4.72;;;9.20;99.90;;;;;;6156871;23;20314;-78
2022/12/24 06:01:32;;;;;;;35.28;5.13;;;8.50;99.90;;;;;;6165171;22;20019;-79
2022/12/24 06:04:14;;;;;;;38.92;5.38;;;8.70;99.90;;;;;;6236651;22;20305;-81
2022/12/24 06:06:40;;;;;;;41.88;5.07;;;7.70;99.90;;;;;;6234635;22;20023;-79
2022/12/24 06:09:46;;;;;;;33.90;4.03;;;8.50;99.90;;;;;;6260448;22;20026;-79
2022/12/24 06:12:12;;;;;;;33.65;5.13;;;8.20;99.90;;;;;;6254362;22;20007;-79
2022/12/24 06:14:38;;;;;;;37.22;5.25;;;9.20;99.90;;;;;;6234136;22;20221;-79
2022/12/24 06:17:04;;;;;;;31.40;4.55;;;9.10;99.90;;;;;;6236856;22;20003;-79
2022/12/24 06:19:29;;;;;;;34.60;5.55;;;9.30;99.90;;;;;;6260697;22;20008;-79
2022/12/24 06:21:55;;;;;;;43.17;5.60;;;7.70;99.90;;;;;;6234397;22;20022;-79
2022/12/24 06:24:24;;;;;;;32.25;4.97;;;8.70;99.90;;;;;;6235908;22;20062;-79
2022/12/24 06:26:53;;;;;;;32.40;4.55;;;9.00;99.90;;;;;;6258769;22;20019;-80
2022/12/24 06:29:21;;;;;;;45.15;6.10;;;8.50;99.90;;;;;;6234244;22;20038;-80
2022/12/24 06:31:46;;;;;;;36.13;4.90;;;9.20;99.90;;;;;;6258440;22;20019;-82
2022/12/24 06:34:12;;;;;;;35.88;4.20;;;9.10;99.90;;;;;;6211357;22;20019;-81
2022/12/24 06:36:41;;;;;;;32.72;4.90;;;8.50;99.90;;;;;;6285246;22;20011;-80
2022/12/24 06:39:07;;;;;;;41.83;5.97;;;8.80;99.90;;;;;;6210636;22;20030;-79
2022/12/24 06:41:33;;;;;;;38.88;5.82;;;8.80;99.90;;;;;;6234052;22;20015;-79
2022/12/24 06:43:59;;;;;;;36.97;5.00;;;8.90;99.90;;;;;;6256920;22;20308;-79
2022/12/24 06:46:30;;;;;;;49.03;5.68;;;9.40;99.90;;;;;;6229973;22;20309;-78
2022/12/24 06:49:04;;;;;;;47.08;6.30;;;9.30;99.90;;;;;;6253140;22;20020;-78
2022/12/24 06:51:30;;;;;;;41.17;6.05;;;9.00;99.90;;;;;;6255467;22;20348;-79
2022/12/24 06:53:55;;;;;;;32.40;4.28;;;9.30;99.90;;;;;;6230229;22;20019;-79
2022/12/24 06:56:21;;;;;;;33.25;5.30;;;9.30;99.90;;;;;;6234436;22;20065;-79
2022/12/24 06:58:50;;;;;;;31.70;5.85;;;8.70;99.90;;;;;;6233364;22;20034;-79
2022/12/24 07:01:18;;;;;;;47.30;6.47;;;8.80;99.90;;;;;;6258741;22;20085;-79
2022/12/24 07:03:44;;;;;;;28.83;4.50;;;9.10;99.90;;;;;;6261290;22;20053;-79
2022/12/24 07:06:50;;;;;;;;;;;;;;;;;;;;;
2022/12/24 07:09:18;;;;;;;;;;;8.50;99.90;;;;;;6227974;22;20077;-79
2022/12/24 07:11:47;;;;;;;38.08;5.50;;;9.30;99.90;;;;;;6227381;22;19907;-80
2022/12/24 07:14:22;;;;;;;37.42;5.00;;;8.70;99.90;;;;;;6230138;22;20011;-81
2022/12/24 07:16:51;;;;;;;30.23;5.13;;;9.40;99.90;;;;;;6207178;22;20003;-80
2022/12/24 07:19:28;;;;;;;26.92;4.53;;;9.00;99.90;;;;;;6230825;22;20242;-78
2022/12/24 07:21:57;;;;;;;29.23;5.05;;;8.30;99.90;;;;;;6255173;22;20015;-80
2022/12/24 07:24:22;;;;;;;34.03;5.30;;;8.50;99.90;;;;;;6206656;22;20008;-80
2022/12/24 07:26:48;;;;;;;28.35;4.63;;;8.70;99.90;;;;;;6256160;22;20374;-79
2022/12/24 07:29:14;;;;;;;44.10;4.80;;;9.20;99.90;;;;;;6232231;22;20011;-79
2022/12/24 07:31:39;;;;;;;27.45;4.55;;;9.20;99.90;;;;;;6181892;22;20028;-79
2022/12/24 07:34:05;;;;;;;27.55;4.75;;;8.90;99.90;;;;;;6229624;22;20012;-79
2022/12/24 07:36:31;;;;;;;43.25;5.20;;;8.60;99.90;;;;;;6256181;22;20012;-79
2022/12/24 07:38:56;;;;;;;47.00;5.53;;;9.10;99.90;;;;;;6226078;22;20011;-79
2022/12/24 07:41:22;;;;;;;35.42;4.75;;;8.60;99.90;;;;;;6180384;22;20011;-80
2022/12/24 07:43:51;;;;;;;43.13;6.18;;;9.20;99.90;;;;;;6179474;22;20019;-79
2022/12/24 07:46:16;;;;;;;31.92;5.07;;;8.40;99.90;;;;;;6254774;22;20383;-79
2022/12/24 07:48:42;;;;;;;27.48;4.53;;;8.30;99.90;;;;;;6255782;22;20019;-80
2022/12/24 07:51:08;;;;;;;29.63;4.88;;;8.80;99.90;;;;;;6204710;22;20011;-78
2022/12/24 07:53:34;;;;;;;30.33;5.18;;;8.10;99.90;;;;;;6203832;22;20020;-77
2022/12/24 07:56:06;;;;;;;26.80;4.35;;;8.80;99.90;;;;;;6253628;22;20018;-80
2022/12/24 07:58:32;;;;;;;25.63;4.57;;;8.80;99.90;;;;;;6229293;22;20014;-78
2022/12/24 08:01:00;;;;;;;37.92;4.47;;;7.70;99.90;;;;;;6203946;22;20039;-78
2022/12/24 08:03:29;;;;;;;28.25;4.75;;;7.60;99.90;;;;;;6203446;22;20276;-78
2022/12/24 08:05:56;;;;;;;37.33;5.30;;;8.00;99.90;;;;;;6237718;22;20011;-79
2022/12/24 08:08:22;;;;;;;40.53;6.43;;;8.30;99.90;;;;;;6258743;22;20031;-77
2022/12/24 08:10:47;;;;;;;29.90;5.28;;;8.20;99.90;;;;;;6234283;22;20187;-77
2022/12/24 08:13:13;;;;;;;28.88;4.70;;;8.10;99.90;;;;;;6260374;22;20171;-79
2022/12/24 08:15:39;;;;;;;24.23;4.22;;;8.30;99.90;;;;;;6209377;22;20066;-79
2022/12/24 08:18:05;;;;;;;23.67;3.72;;;8.80;99.90;;;;;;6235279;22;20022;-81
2022/12/24 08:20:30;;;;;;;23.55;5.13;;;8.30;99.90;;;;;;6235500;22;20011;-81
2022/12/24 08:22:59;;;;;;;25.08;4.43;;;8.70;99.90;;;;;;6260016;22;20202;-79
2022/12/24 08:25:25;;;;;;;30.85;4.63;;;8.30;99.90;;;;;;6259093;22;20015;-77
2022/12/24 08:27:51;;;;;;;36.15;5.57;;;8.50;99.90;;;;;;6233584;22;20057;-78
2022/12/24 08:30:16;;;;;;;38.22;4.38;;;9.10;99.90;;;;;;6235472;22;20630;-79
2022/12/24 08:32:42;;;;;;;31.17;5.00;;;9.20;99.90;;;;;;6208471;22;20301;-78
2022/12/24 08:35:09;;;;;;;35.65;5.18;;;9.10;99.90;;;;;;6206362;22;20229;-77
2022/12/24 08:37:35;;;;;;;38.92;5.30;;;9.00;99.90;;;;;;6311855;22;20007;-78
2022/12/24 08:40:01;;;;;;;38.72;6.00;;;9.00;99.90;;;;;;6286062;22;20091;-78
2022/12/24 08:42:27;;;;;;;44.45;6.22;;;9.10;99.90;;;;;;6235135;22;20015;-77
2022/12/24 08:44:52;;;;;;;48.78;6.97;;;9.50;99.90;;;;;;6258426;22;20417;-77
2022/12/24 08:47:18;;;;;;;32.13;7.45;;;8.80;99.90;;;;;;6233039;22;20011;-78
2022/12/24 08:49:44;;;;;;;32.35;6.78;;;8.90;99.90;;;;;;6234525;22;20061;-77
2022/12/24 08:52:09;;;;;;;37.67;5.65;;;9.70;99.90;;;;;;6258916;22;20270;-77
2022/12/24 08:54:35;;;;;;;31.17;6.28;;;8.90;99.90;;;;;;6231716;22;20338;-78
2022/12/24 08:57:30;;;;;;;36.55;7.53;;;9.60;99.90;;;;;;6283704;22;20018;-79
2022/12/24 09:00:07;;;;;;;31.85;5.80;;;9.40;99.90;;;;;;6244765;22;20012;-78
2022/12/24 09:02:39;;;;;;;38.05;6.35;;;9.00;99.90;;;;;;6258982;22;20429;-79
2022/12/24 09:05:05;;;;;;;33.45;5.68;;;9.70;99.90;;;;;;6281347;22;20041;-79
2022/12/24 09:07:34;;;;;;;46.03;7.18;;;9.80;99.90;;;;;;6257427;22;20555;-77
2022/12/24 09:10:25;;;;;;;35.30;7.72;;;9.60;99.90;;;;;;6259861;22;20023;-78
2022/12/24 09:12:51;;;;;;;33.72;5.57;;;9.30;99.90;;;;;;6285065;22;20014;-78
2022/12/24 09:15:17;;;;;;;42.67;6.63;;;9.80;99.90;;;;;;6234923;22;20011;-77
2022/12/24 09:18:13;;;;;;;32.53;6.20;;;9.20;99.90;;;;;;6260125;22;20061;-78
2022/12/24 09:21:02;;;;;;;41.00;6.88;;;9.40;99.90;;;;;;6284756;22;20019;-79
2022/12/24 09:24:08;;;;;;;31.15;5.95;;;9.10;99.90;;;;;;6258647;22;20274;-78
2022/12/24 09:28:00;;;;;;;33.58;5.75;;;9.30;99.90;;;;;;6257651;22;20100;-79
2022/12/24 09:42:02;;;;;;;33.55;5.32;;;8.60;99.90;;;;;;5936801;23;20083;-79
2022/12/24 09:44:58;;;;;;;;;;;;;;;;;;;;;
2022/12/24 09:51:44;;;;;;;30.92;4.55;;;10.50;99.90;;;;;;6083802;23;20497;-78
2022/12/24 09:54:21;;;;;;;26.90;5.93;;;9.30;99.90;;;;;;6111237;23;20066;-77
2022/12/24 09:56:48;;;;;;;32.65;5.00;;;9.60;99.90;;;;;;6198406;22;20012;-78
2022/12/24 09:59:21;;;;;;;27.15;4.93;;;9.70;99.90;;;;;;6258147;22;20011;-78
2022/12/24 10:01:49;;;;;;;34.55;5.53;;;10.20;99.90;;;;;;6260774;22;20042;-77
2022/12/24 10:34:16;;;;;;;;;;;;;;;;;;;;;
2022/12/24 10:37:46;;;;;;;29.58;5.75;;;10.40;99.90;;;;;;5863389;24;20268;-76
2022/12/24 10:48:39;;;;;;;;;;;;;;;;;;;;;
2022/12/24 10:51:17;;;;;;;20.95;5.53;;;9.70;99.90;;;;;;5848371;24;20007;-75
2022/12/24 10:53:50;;;;;;;33.22;6.85;;;9.80;99.90;;;;;;6057878;23;20351;-74
2022/12/24 10:56:40;;;;;;;;;;;;;;;;;;;;;
2022/12/24 10:59:31;;;;;;;29.98;5.13;;;9.50;99.90;;;;;;6151507;23;20239;-75
2022/12/24 11:01:59;;;;;;;27.15;6.35;;;9.10;99.90;;;;;;6193536;23;20008;-75
2022/12/24 11:04:33;;;;;;;31.17;5.40;;;10.30;99.90;;;;;;6156973;23;20009;-75
2022/12/24 11:08:08;;;;;;;29.45;5.88;;;10.80;99.90;;;;;;6110664;23;20017;-75
2022/12/24 11:11:10;;;;;;;26.58;5.32;;;11.40;99.90;;;;;;6091583;23;20018;-76
2022/12/24 11:17:39;;;;;;;24.20;4.72;;;10.70;99.90;;;;;;6121350;23;20017;-75
2022/12/24 11:20:17;;;;;;;20.33;4.22;;;10.10;99.90;;;;;;6103514;23;20014;-76
2022/12/24 11:30:47;;;;;;;;;;;;;;;;;;;;;
2022/12/24 11:33:20;;;;;;;16.33;3.63;;;9.80;99.90;;;;;;6103535;23;20072;-75
2022/12/24 11:36:05;;;;;;;24.10;4.75;;;10.20;99.90;;;;;;6112241;23;20021;-74
2022/12/24 11:38:35;;;;;;;22.85;4.05;;;10.80;99.90;;;;;;6224659;22;20027;-77
2022/12/24 11:41:51;;;;;;;;;;;;;;;;;;;;;
2022/12/24 11:46:15;;;;;;;;;;;;;;;;;;;;;
2022/12/24 11:52:33;;;;;;;22.73;4.88;;;10.40;99.90;;;;;;6103424;23;20026;-78
2022/12/24 11:55:30;;;;;;;21.08;4.18;;;9.40;99.90;;;;;;6166011;22;20090;-78
2022/12/24 12:02:01;;;;;;;20.30;4.25;;;10.00;99.90;;;;;;6186651;23;20040;-77
2022/12/24 12:04:34;;;;;;;17.45;3.13;;;10.10;99.90;;;;;;6188419;22;20074;-77
2022/12/24 12:07:07;;;;;;;21.17;3.92;;;10.60;99.90;;;;;;6253661;22;20458;-77
2022/12/24 12:17:13;;;;;;;20.73;3.05;;;10.60;99.90;;;;;;6252757;22;20022;-78
2022/12/24 12:20:08;;;;;;;22.83;4.28;;;10.40;99.90;;;;;;6250449;22;20020;-77
2022/12/24 12:22:56;;;;;;;25.67;4.38;;;10.70;99.90;;;;;;6253107;22;20067;-76
2022/12/24 12:25:44;;;;;;;31.50;5.35;;;10.70;99.90;;;;;;6227166;22;20015;-77
2022/12/24 12:48:00;;;;;;;18.38;3.83;;;10.00;99.90;;;;;;6144385;22;20069;-76
2022/12/24 12:51:06;;;;;;;17.25;3.58;;;10.20;99.90;;;;;;6225778;22;20093;-77
2022/12/24 12:57:10;;;;;;;17.83;4.22;;;10.00;99.90;;;;;;6094055;23;20013;-77
2022/12/24 13:03:06;;;;;;;17.40;3.65;;;9.90;99.90;;;;;;6222849;22;20045;-76
2022/12/24 13:06:19;;;;;;;30.27;4.32;;;10.40;99.90;;;;;;6230292;22;20011;-77
2022/12/24 13:09:22;;;;;;;20.38;3.88;;;10.40;99.90;;;;;;6282470;22;20057;-77
2022/12/24 13:11:57;;;;;;;19.27;4.25;;;8.70;99.90;;;;;;6261763;22;20022;-78
2022/12/24 13:14:36;;;;;;;21.63;2.88;;;10.20;99.90;;;;;;6259860;22;20019;-78
2022/12/24 13:17:11;;;;;;;18.63;3.60;;;10.40;99.90;;;;;;6261522;22;20060;-78
2022/12/24 13:20:02;;;;;;;20.13;4.00;;;10.50;99.90;;;;;;6284716;22;20490;-77
2022/12/24 13:22:31;;;;;;;17.65;3.60;;;9.90;99.90;;;;;;6287347;22;20689;-77
2022/12/24 13:25:59;;;;;;;19.42;3.55;;;10.60;99.90;;;;;;6261403;22;20007;-78
2022/12/24 13:28:32;;;;;;;19.00;3.05;;;10.30;99.90;;;;;;6135364;23;20048;-77
2022/12/24 13:31:16;;;;;;;14.02;2.67;;;10.40;99.90;;;;;;6135874;23;20029;-74
2022/12/24 13:33:41;;;;;;;14.18;3.13;;;10.00;99.90;;;;;;6258059;22;20178;-75
2022/12/24 13:36:09;;;;;;;24.15;3.72;;;9.90;99.90;;;;;;6286537;22;20015;-75
2022/12/24 13:38:58;;;;;;;13.40;3.75;;;9.90;99.90;;;;;;6286762;22;20022;-75
2022/12/24 13:41:39;;;;;;;17.60;3.55;;;9.80;99.90;;;;;;6261043;22;20019;-75
2022/12/24 13:55:48;;;;;;;18.80;3.10;;;10.30;99.90;;;;;;6265421;22;20175;-75
2022/12/24 13:58:18;;;;;;;20.45;3.22;;;10.10;99.90;;;;;;6258536;22;20043;-75
2022/12/24 14:01:03;;;;;;;17.45;2.47;;;9.50;99.90;;;;;;6281437;22;20019;-74
2022/12/24 14:03:35;;;;;;;13.60;2.90;;;9.90;99.90;;;;;;6258271;22;20098;-76
2022/12/24 14:06:12;;;;;;;;;;;10.30;99.90;;;;;;6261023;22;20065;-77
2022/12/24 14:08:44;;;;;;;16.42;3.67;;;9.50;99.90;;;;;;6283553;22;20178;-77
2022/12/24 14:11:20;;;;;;;13.68;3.30;;;9.90;99.90;;;;;;6257725;22;20084;-76
2022/12/24 14:13:53;;;;;;;18.65;3.85;;;10.00;99.90;;;;;;6259931;22;20021;-77
2022/12/24 14:16:51;;;;;;;19.52;3.45;;;10.90;99.90;;;;;;6258370;22;20305;-76
2022/12/24 14:19:27;;;;;;;17.85;3.47;;;9.90;99.90;;;;;;6260478;22;20037;-76
2022/12/24 14:21:59;;;;;;;17.23;4.18;;;9.70;99.90;;;;;;6285733;22;20039;-76
2022/12/24 14:24:33;;;;;;;18.75;3.30;;;10.00;99.90;;;;;;6261013;22;20066;-76
2022/12/24 14:27:23;;;;;;;17.83;3.17;;;9.50;99.90;;;;;;6261539;22;20007;-76
2022/12/24 14:30:04;;;;;;;17.67;3.50;;;9.30;99.90;;;;;;6261175;22;20144;-76
2022/12/24 14:32:39;;;;;;;14.70;3.45;;;9.80;99.90;;;;;;6283882;22;20035;-75
2022/12/24 14:35:48;;;;;;;;;;;9.30;99.90;;;;;;6285665;22;20365;-76
2022/12/24 14:38:20;;;;;;;10.93;2.78;;;9.20;99.90;;;;;;6284249;22;20074;-76
2022/12/24 14:41:36;;;;;;;;;;;;;;;;;;;;;
2022/12/24 14:48:13;;;;;;;17.88;4.30;;;8.60;99.90;;;;;;6272597;22;20091;-76
2022/12/24 14:51:01;;;;;;;14.20;3.28;;;10.50;99.90;;;;;;6284723;22;20224;-76
2022/12/24 14:53:54;;;;;;;17.13;3.30;;;9.60;99.90;;;;;;6259841;22;20082;-76
2022/12/24 14:56:24;;;;;;;13.05;3.42;;;9.30;99.90;;;;;;6258334;22;20106;-77
2022/12/24 14:58:56;;;;;;;13.93;3.15;;;9.00;99.90;;;;;;6256447;22;20030;-75
2022/12/24 15:01:45;;;;;;;11.40;3.15;;;9.20;99.90;;;;;;6284477;22;20053;-76
2022/12/24 15:04:31;;;;;;;12.43;2.92;;;8.90;99.90;;;;;;6260663;22;20067;-78
2022/12/24 15:06:58;;;;;;;9.90;2.90;;;9.20;99.90;;;;;;6259777;22;20023;-77
2022/12/24 15:09:30;;;;;;;13.35;3.22;;;7.50;99.90;;;;;;6288779;22;20019;-77
2022/12/24 15:11:59;;;;;;;11.77;3.72;;;9.50;99.90;;;;;;6287004;22;20023;-77
2022/12/24 15:14:27;;;;;;;14.35;3.40;;;9.00;99.90;;;;;;6285405;22;20022;-75
2022/12/24 15:16:54;;;;;;;20.30;3.83;;;9.40;99.90;;;;;;6261547;22;20010;-74
2022/12/24 15:19:36;;;;;;;14.40;3.47;;;8.90;99.90;;;;;;6286125;22;20019;-75
2022/12/24 15:22:06;;;;;;;13.13;3.92;;;8.90;99.90;;;;;;6257258;22;20023;-76
2022/12/24 15:24:43;;;;;;;15.85;4.43;;;9.20;99.90;;;;;;6282370;22;20015;-76
2022/12/24 15:27:22;;;;;;;15.07;4.25;;;9.40;99.90;;;;;;6283073;22;20445;-75
2022/12/24 15:29:51;;;;;;;14.50;3.97;;;9.30;99.90;;;;;;6280183;22;20327;-74
2022/12/24 15:32:19;;;;;;;14.10;4.28;;;8.70;99.90;;;;;;6282341;22;20018;-74
2022/12/24 15:34:50;;;;;;;11.05;3.03;;;9.10;99.90;;;;;;6282610;22;20011;-75
2022/12/24 15:37:23;;;;;;;11.43;3.22;;;9.20;99.90;;;;;;6254983;22;20254;-77
2022/12/24 15:39:59;;;;;;;10.38;3.30;;;9.20;99.90;;;;;;6279780;22;20555;-76
2022/12/24 15:42:27;;;;;;;11.93;3.13;;;8.80;99.90;;;;;;6278767;22;20297;-76
2022/12/24 15:45:15;;;;;;;15.23;3.72;;;8.90;99.90;;;;;;6254427;22;20149;-77
2022/12/24 15:47:49;;;;;;;13.15;3.40;;;9.00;99.90;;;;;;6252345;22;20107;-76
2022/12/24 15:50:24;;;;;;;11.32;4.13;;;8.20;99.90;;;;;;6255828;22;20011;-77
2022/12/24 15:52:50;;;;;;;10.20;2.85;;;8.20;99.90;;;;;;6256336;22;20014;-76
2022/12/24 15:55:38;;;;;;;10.68;3.75;;;8.50;99.90;;;;;;6281094;22;20202;-76
2022/12/24 16:02:27;;;;;;;14.85;5.22;;;7.70;99.90;;;;;;6283587;22;20019;-77
2022/12/24 16:09:42;;;;;;;14.98;3.63;;;6.90;99.90;;;;;;6125357;23;20023;-75
2022/12/24 16:12:32;;;;;;;25.83;8.13;;;7.80;99.90;;;;;;6127069;23;20302;-75
2022/12/24 16:18:52;;;;;;;12.93;3.97;;;7.20;99.90;;;;;;6260665;22;20318;-76
2022/12/24 16:26:21;;;;;;;;;;;;;;;;;;;;;
2022/12/24 16:35:51;;;;;;;25.80;7.47;;;6.90;99.90;;;;;;6175752;23;20030;-77
2022/12/24 16:39:21;;;;;;;14.77;4.70;;;7.20;99.90;;;;;;6158108;23;20017;-76
2022/12/24 16:41:18;;;;;;;19.10;4.55;;;7.80;99.90;;;;;;6169618;23;20265;-74
2022/12/24 16:47:14;;;;;;;;;;;;;;;;;;;;;
2022/12/24 16:49:46;;;;;;;19.65;5.07;;;8.00;99.90;;;;;;6186155;23;20028;-75